Time;durP1;ratioP1;P1;durP2;ratioP2;P2;SDS_P1;SDS_P2;PMS_P1;PMS_P2;Temp;Humidity;BMP_temperature;BMP_pressure;BME280_temperature;BME280_humidity;BME280_pressure;Samples;Min_cycle;Max_cycle;Signal;HPM_P1;HPM_P2
2022/08/25 00:00:31;;;;;;;23.52;21.08;;;;;;;;;;5005498;28;20088;-73
2022/08/25 00:02:57;;;;;;;24.17;21.70;;;;;;;;;;5014922;28;20026;-75
2022/08/25 00:05:25;;;;;;;24.67;20.83;;;;;;;;;;5003903;28;20061;-73
2022/08/25 00:07:51;;;;;;;26.25;21.67;;;;;;;;;;5002981;28;20164;-75
2022/08/25 00:10:17;;;;;;;24.38;21.00;;;;;;;;;;5014196;28;20045;-73
2022/08/25 00:12:43;;;;;;;27.73;22.33;;;;;;;;;;5003626;28;20022;-73
2022/08/25 00:15:09;;;;;;;28.98;22.00;;;;;;;;;;5004598;28;20052;-73
2022/08/25 00:17:35;;;;;;;24.45;20.95;;;;;;;;;;5007094;28;20038;-73
2022/08/25 00:20:02;;;;;;;29.35;20.90;;;;;;;;;;5014779;28;20420;-73
2022/08/25 00:22:28;;;;;;;21.67;19.42;;;;;;;;;;5015268;28;20045;-73
2022/08/25 00:24:54;;;;;;;29.75;21.70;;;;;;;;;;5016212;28;20018;-74
2022/08/25 00:27:20;;;;;;;25.88;21.13;;;;;;;;;;5017134;28;20048;-73
2022/08/25 00:29:46;;;;;;;23.23;20.73;;;;;;;;;;5032060;28;20048;-73
2022/08/25 00:32:12;;;;;;;23.45;20.88;;;;;;;;;;5038845;28;20034;-73
2022/08/25 00:34:39;;;;;;;22.48;20.05;;;;;;;;;;5033472;28;20118;-73
2022/08/25 00:37:08;;;;;;;23.08;18.23;;;;;;;;;;5034054;28;20037;-73
2022/08/25 00:39:34;;;;;;;22.15;19.70;;;;;;;;;;5028851;28;20028;-73
2022/08/25 00:42:00;;;;;;;21.05;17.48;;;;;;;;;;5014739;28;20037;-73
2022/08/25 00:44:28;;;;;;;20.42;17.52;;;;;;;;;;5014265;28;20036;-73
2022/08/25 00:46:55;;;;;;;23.98;17.60;;;;;;;;;;5040549;28;20034;-73
2022/08/25 00:49:46;;;;;;;20.50;16.40;;;;;;;;;;5047249;28;20119;-73
2022/08/25 00:52:32;;;;;;;20.88;15.80;;;;;;;;;;5033617;28;20083;-74
2022/08/25 00:55:00;;;;;;;16.45;14.15;;;;;;;;;;5014483;28;20052;-73
2022/08/25 00:57:29;;;;;;;18.63;15.20;;;;;;;;;;5023470;28;20014;-73
2022/08/25 00:59:55;;;;;;;16.05;13.40;;;;;;;;;;5024927;28;20040;-74
2022/08/25 01:02:22;;;;;;;20.00;13.23;;;;;;;;;;5056671;28;20381;-74
2022/08/25 01:04:48;;;;;;;13.85;12.25;;;;;;;;;;5027465;28;20046;-74
2022/08/25 01:07:15;;;;;;;12.27;10.75;;;;;;;;;;5013869;28;20038;-73
2022/08/25 01:09:42;;;;;;;14.15;10.18;;;;;;;;;;5039332;28;20021;-73
2022/08/25 01:12:08;;;;;;;13.88;10.38;;;;;;;;;;5029752;28;20041;-73
2022/08/25 01:14:35;;;;;;;11.88;9.52;;;;;;;;;;5031850;28;20045;-74
2022/08/25 01:17:01;;;;;;;12.13;9.13;;;;;;;;;;5022136;28;20026;-73
2022/08/25 01:19:28;;;;;;;10.43;8.75;;;;;;;;;;5030305;28;20033;-73
2022/08/25 01:21:54;;;;;;;12.63;7.82;;;;;;;;;;5029092;28;20041;-74
2022/08/25 01:24:39;;;;;;;14.55;9.23;;;;;;;;;;5031271;28;20025;-73
2022/08/25 01:27:05;;;;;;;11.70;7.07;;;;;;;;;;5030380;28;20038;-73
2022/08/25 01:29:31;;;;;;;8.13;6.70;;;;;;;;;;5004050;28;20025;-73
2022/08/25 01:31:59;;;;;;;9.95;6.53;;;;;;;;;;5011317;28;20064;-74
2022/08/25 01:34:26;;;;;;;10.25;5.78;;;;;;;;;;5013166;28;20385;-73
2022/08/25 01:36:53;;;;;;;8.88;5.90;;;;;;;;;;4997469;28;20085;-73
2022/08/25 01:39:20;;;;;;;13.45;6.05;;;;;;;;;;5005976;28;20065;-73
2022/08/25 01:41:46;;;;;;;7.15;5.57;;;;;;;;;;5011995;28;20112;-73
2022/08/25 01:44:12;;;;;;;8.18;5.80;;;;;;;;;;5004988;28;20030;-73
2022/08/25 01:46:38;;;;;;;12.27;5.50;;;;;;;;;;5012820;28;20034;-73
2022/08/25 01:49:04;;;;;;;12.75;5.32;;;;;;;;;;5013192;28;20125;-74
2022/08/25 01:51:34;;;;;;;6.88;5.10;;;;;;;;;;5010894;28;20116;-73
2022/08/25 01:54:00;;;;;;;5.82;3.67;;;;;;;;;;5006027;28;20022;-73
2022/08/25 01:56:26;;;;;;;8.05;3.80;;;;;;;;;;5002755;28;20030;-73
2022/08/25 01:58:52;;;;;;;5.13;4.10;;;;;;;;;;4999918;28;20382;-74
2022/08/25 02:01:20;;;;;;;8.23;3.60;;;;;;;;;;5006340;28;20034;-74
2022/08/25 02:03:47;;;;;;;5.32;3.47;;;;;;;;;;5001525;28;20030;-74
2022/08/25 02:06:15;;;;;;;8.85;3.22;;;;;;;;;;4987926;28;20050;-74
2022/08/25 02:08:42;;;;;;;6.25;2.80;;;;;;;;;;4998387;28;20046;-74
2022/08/25 02:11:13;;;;;;;5.25;3.10;;;;;;;;;;5007997;28;20033;-73
2022/08/25 02:13:40;;;;;;;7.00;3.30;;;;;;;;;;5014017;28;20041;-74
2022/08/25 02:16:07;;;;;;;14.15;3.80;;;;;;;;;;5011400;28;20109;-74
2022/08/25 02:18:33;;;;;;;5.90;3.17;;;;;;;;;;5011632;28;20517;-73
2022/08/25 02:20:59;;;;;;;7.00;3.45;;;;;;;;;;5014480;28;20994;-73
2022/08/25 02:23:25;;;;;;;4.95;3.20;;;;;;;;;;5009650;28;20026;-73
2022/08/25 02:25:52;;;;;;;9.05;3.22;;;;;;;;;;5012214;28;20017;-74
2022/08/25 02:28:18;;;;;;;4.95;3.08;;;;;;;;;;5005211;28;20124;-74
2022/08/25 02:30:44;;;;;;;7.03;2.40;;;;;;;;;;4972754;28;20585;-73
2022/08/25 02:33:11;;;;;;;3.20;2.58;;;;;;;;;;5005902;28;20029;-73
2022/08/25 02:35:37;;;;;;;7.03;2.95;;;;;;;;;;4990655;28;20401;-73
2022/08/25 02:38:04;;;;;;;8.60;2.72;;;;;;;;;;5005182;28;20595;-74
2022/08/25 02:40:30;;;;;;;7.32;3.03;;;;;;;;;;5008280;28;20030;-75
2022/08/25 02:42:56;;;;;;;6.30;2.60;;;;;;;;;;4994083;28;20062;-74
2022/08/25 02:45:22;;;;;;;9.98;2.63;;;;;;;;;;5010306;28;20030;-73
2022/08/25 02:47:49;;;;;;;6.40;2.85;;;;;;;;;;5014357;28;20034;-73
2022/08/25 02:50:15;;;;;;;3.90;2.53;;;;;;;;;;4998609;28;20039;-73
2022/08/25 02:52:41;;;;;;;9.25;2.80;;;;;;;;;;5007794;28;20042;-73
2022/08/25 02:55:09;;;;;;;8.00;2.40;;;;;;;;;;4999090;28;20117;-74
2022/08/25 02:57:35;;;;;;;5.40;2.65;;;;;;;;;;4993830;28;20040;-73
2022/08/25 03:00:01;;;;;;;6.80;3.03;;;;;;;;;;4999924;28;20370;-75
2022/08/25 03:02:27;;;;;;;4.70;2.67;;;;;;;;;;5004684;28;20133;-74
2022/08/25 03:04:53;;;;;;;4.45;2.40;;;;;;;;;;5027840;28;20045;-74
2022/08/25 03:07:20;;;;;;;5.82;2.30;;;;;;;;;;5013356;28;20044;-73
2022/08/25 03:09:46;;;;;;;7.57;2.25;;;;;;;;;;5010700;28;20539;-74
2022/08/25 03:12:13;;;;;;;7.18;2.33;;;;;;;;;;5002464;28;20062;-73
2022/08/25 03:14:39;;;;;;;4.25;2.50;;;;;;;;;;5002846;28;20026;-74
2022/08/25 03:17:08;;;;;;;6.70;2.35;;;;;;;;;;4993315;28;20059;-74
2022/08/25 03:19:34;;;;;;;7.95;2.47;;;;;;;;;;5000422;28;20400;-75
2022/08/25 03:22:01;;;;;;;42.83;24.02;;;;;;;;;;4997292;28;20037;-72
2022/08/25 03:24:27;;;;;;;10.38;5.53;;;;;;;;;;5001238;28;20034;-77
2022/08/25 03:26:54;;;;;;;10.40;6.13;;;;;;;;;;5003369;28;20033;-74
2022/08/25 03:29:21;;;;;;;6.07;2.97;;;;;;;;;;5008879;28;20029;-75
2022/08/25 03:31:47;;;;;;;6.05;2.70;;;;;;;;;;5020905;28;20036;-75
2022/08/25 03:34:17;;;;;;;5.43;2.65;;;;;;;;;;5022586;28;20050;-75
2022/08/25 03:36:45;;;;;;;5.72;2.53;;;;;;;;;;5013959;28;20097;-76
2022/08/25 03:39:11;;;;;;;5.85;2.45;;;;;;;;;;5020367;28;20044;-75
2022/08/25 03:41:37;;;;;;;5.85;2.30;;;;;;;;;;5029531;28;20083;-75
2022/08/25 03:44:04;;;;;;;6.18;2.40;;;;;;;;;;5029508;28;20053;-74
2022/08/25 03:46:34;;;;;;;6.60;2.40;;;;;;;;;;5030954;28;20045;-75
2022/08/25 03:49:01;;;;;;;3.50;2.05;;;;;;;;;;5028949;28;20030;-75
2022/08/25 03:51:39;;;;;;;4.32;2.15;;;;;;;;;;5028657;28;20029;-75
2022/08/25 03:54:06;;;;;;;3.38;2.05;;;;;;;;;;5030602;28;20098;-75
2022/08/25 03:56:32;;;;;;;4.43;1.90;;;;;;;;;;5036764;28;20117;-75
2022/08/25 03:58:58;;;;;;;4.18;2.03;;;;;;;;;;5036970;28;20056;-76
2022/08/25 04:01:24;;;;;;;6.70;1.85;;;;;;;;;;5028522;28;20116;-76
2022/08/25 04:03:51;;;;;;;5.05;1.77;;;;;;;;;;5027425;28;20029;-76
2022/08/25 04:06:17;;;;;;;3.75;2.15;;;;;;;;;;5025528;28;20033;-75
2022/08/25 04:08:43;;;;;;;5.30;2.00;;;;;;;;;;5028095;28;20048;-75
2022/08/25 04:11:11;;;;;;;3.90;2.13;;;;;;;;;;5028680;28;20045;-74
2022/08/25 04:13:38;;;;;;;8.07;2.65;;;;;;;;;;5032571;28;20040;-75
2022/08/25 04:16:11;;;;;;;4.28;1.98;;;;;;;;;;5018803;28;20041;-74
2022/08/25 04:18:37;;;;;;;5.32;2.20;;;;;;;;;;5009656;28;20620;-76
2022/08/25 04:21:05;;;;;;;5.72;2.15;;;;;;;;;;5029252;28;20420;-74
2022/08/25 04:23:31;;;;;;;5.45;2.00;;;;;;;;;;5020550;28;20050;-75
2022/08/25 04:25:58;;;;;;;5.53;2.05;;;;;;;;;;5027913;28;20484;-75
2022/08/25 04:28:24;;;;;;;5.10;2.00;;;;;;;;;;5003910;28;20050;-75
2022/08/25 04:30:50;;;;;;;3.97;1.95;;;;;;;;;;5004798;28;20118;-75
2022/08/25 04:33:16;;;;;;;5.72;2.08;;;;;;;;;;5008742;28;20037;-74
2022/08/25 04:35:46;;;;;;;2.53;2.10;;;;;;;;;;5001660;28;20057;-75
2022/08/25 04:38:12;;;;;;;4.85;2.10;;;;;;;;;;5009554;28;20040;-74
2022/08/25 04:40:38;;;;;;;8.50;1.90;;;;;;;;;;5013622;28;20172;-75
2022/08/25 04:43:04;;;;;;;4.28;2.08;;;;;;;;;;5012729;28;20049;-74
2022/08/25 04:45:30;;;;;;;4.38;2.13;;;;;;;;;;4993801;28;20026;-74
2022/08/25 04:47:59;;;;;;;5.20;2.50;;;;;;;;;;5034073;28;20041;-75
2022/08/25 04:50:25;;;;;;;6.38;2.30;;;;;;;;;;5011501;28;20031;-75
2022/08/25 04:52:52;;;;;;;2.83;1.92;;;;;;;;;;4994767;28;20038;-75
2022/08/25 04:55:19;;;;;;;8.07;2.00;;;;;;;;;;5006699;28;20030;-76
2022/08/25 04:57:45;;;;;;;11.80;2.35;;;;;;;;;;5013002;28;20539;-75
2022/08/25 05:00:11;;;;;;;3.85;2.17;;;;;;;;;;5012035;28;20191;-75
2022/08/25 05:02:37;;;;;;;5.70;2.20;;;;;;;;;;5014721;28;20033;-75
2022/08/25 05:05:03;;;;;;;3.35;2.00;;;;;;;;;;5006676;28;20046;-75
2022/08/25 05:07:29;;;;;;;5.68;1.90;;;;;;;;;;4998522;28;20497;-74
2022/08/25 05:09:55;;;;;;;3.60;1.95;;;;;;;;;;5006080;28;20042;-75
2022/08/25 05:12:21;;;;;;;5.05;2.00;;;;;;;;;;5007724;28;20030;-75
2022/08/25 05:14:47;;;;;;;5.15;1.80;;;;;;;;;;5005750;28;20030;-76
2022/08/25 05:17:13;;;;;;;5.00;1.70;;;;;;;;;;5011639;28;20069;-74
2022/08/25 05:19:39;;;;;;;7.20;2.67;;;;;;;;;;5012009;28;20034;-74
2022/08/25 05:22:05;;;;;;;5.18;1.90;;;;;;;;;;5015831;28;20037;-75
2022/08/25 05:24:32;;;;;;;8.88;2.20;;;;;;;;;;5007982;28;20034;-74
2022/08/25 05:26:58;;;;;;;9.35;1.98;;;;;;;;;;5010649;28;20544;-75
2022/08/25 05:29:24;;;;;;;5.40;2.10;;;;;;;;;;5007411;28;20018;-75
2022/08/25 05:31:50;;;;;;;4.97;2.20;;;;;;;;;;5001832;28;20027;-75
2022/08/25 05:34:17;;;;;;;13.30;2.15;;;;;;;;;;5001093;28;20038;-74
2022/08/25 05:36:43;;;;;;;4.47;2.30;;;;;;;;;;5008795;28;20034;-75
2022/08/25 05:39:10;;;;;;;3.15;2.10;;;;;;;;;;5032166;28;20108;-75
2022/08/25 05:41:36;;;;;;;9.35;2.15;;;;;;;;;;5008255;28;20037;-75
2022/08/25 05:44:02;;;;;;;5.28;1.70;;;;;;;;;;5012341;28;20026;-75
2022/08/25 05:46:29;;;;;;;2.90;2.05;;;;;;;;;;5014847;28;20029;-75
2022/08/25 05:48:55;;;;;;;5.25;2.00;;;;;;;;;;4994362;28;20365;-75
2022/08/25 05:51:22;;;;;;;5.93;2.50;;;;;;;;;;4985565;28;21749;-75
2022/08/25 05:53:49;;;;;;;5.47;2.30;;;;;;;;;;5015516;28;20299;-75
2022/08/25 05:56:15;;;;;;;9.85;2.55;;;;;;;;;;5014309;28;20057;-75
2022/08/25 05:58:42;;;;;;;3.33;1.77;;;;;;;;;;5003410;28;20117;-75
2022/08/25 06:03:52;;;;;;;7.90;2.20;;;;;;;;;;5008209;28;20040;-75
2022/08/25 06:06:19;;;;;;;5.97;1.77;;;;;;;;;;5009927;28;20038;-76
2022/08/25 06:08:45;;;;;;;6.55;1.80;;;;;;;;;;5017513;28;20037;-75
2022/08/25 06:11:12;;;;;;;5.20;1.85;;;;;;;;;;5010910;28;20044;-75
2022/08/25 06:13:39;;;;;;;4.30;2.15;;;;;;;;;;5015158;28;20026;-75
2022/08/25 06:16:06;;;;;;;5.97;2.45;;;;;;;;;;5000458;28;20026;-75
2022/08/25 06:18:32;;;;;;;9.40;2.10;;;;;;;;;;4989279;28;20544;-75
2022/08/25 06:20:58;;;;;;;7.22;2.38;;;;;;;;;;5005734;28;20040;-75
2022/08/25 06:23:24;;;;;;;6.85;1.90;;;;;;;;;;5008067;28;20092;-75
2022/08/25 06:25:55;;;;;;;4.40;2.10;;;;;;;;;;5008679;28;20080;-75
2022/08/25 06:28:21;;;;;;;5.70;2.53;;;;;;;;;;5005794;28;20054;-77
2022/08/25 06:30:47;;;;;;;7.07;3.70;;;;;;;;;;5002703;28;20060;-73
2022/08/25 06:33:14;;;;;;;6.13;3.47;;;;;;;;;;5017657;28;20030;-73
2022/08/25 06:35:43;;;;;;;10.75;5.80;;;;;;;;;;5003044;28;20041;-72
2022/08/25 06:38:10;;;;;;;9.10;2.75;;;;;;;;;;5008769;28;20085;-75
2022/08/25 06:40:36;;;;;;;8.43;2.33;;;;;;;;;;5010741;28;20469;-75
2022/08/25 06:43:06;;;;;;;4.13;2.00;;;;;;;;;;5007796;28;20026;-75
2022/08/25 06:45:32;;;;;;;4.70;2.10;;;;;;;;;;4994349;28;20029;-75
2022/08/25 06:47:58;;;;;;;4.45;2.22;;;;;;;;;;5011720;28;20034;-74
2022/08/25 06:50:24;;;;;;;5.82;2.38;;;;;;;;;;5004459;28;20030;-74
2022/08/25 06:52:50;;;;;;;7.78;2.60;;;;;;;;;;5003418;28;21028;-76
2022/08/25 06:55:17;;;;;;;9.85;1.80;;;;;;;;;;4994273;28;20033;-78
2022/08/25 06:57:43;;;;;;;12.05;2.55;;;;;;;;;;5007274;28;20478;-75
2022/08/25 07:00:10;;;;;;;5.88;2.33;;;;;;;;;;5006522;28;20134;-74
2022/08/25 07:02:37;;;;;;;5.32;2.00;;;;;;;;;;4994518;28;20506;-76
2022/08/25 07:05:03;;;;;;;34.90;21.73;;;;;;;;;;5001010;28;20108;-76
2022/08/25 07:07:30;;;;;;;13.75;4.65;;;;;;;;;;5009777;28;20041;-75
2022/08/25 07:09:56;;;;;;;5.88;2.35;;;;;;;;;;5006938;28;20030;-75
2022/08/25 07:12:23;;;;;;;5.97;2.45;;;;;;;;;;4992084;28;20030;-74
2022/08/25 07:14:49;;;;;;;6.15;2.17;;;;;;;;;;5003535;28;20056;-79
2022/08/25 07:17:16;;;;;;;7.38;2.40;;;;;;;;;;4990531;28;20033;-77
2022/08/25 07:19:42;;;;;;;5.63;2.05;;;;;;;;;;5004565;28;20031;-79
2022/08/25 07:22:08;;;;;;;5.35;2.13;;;;;;;;;;5010173;28;20481;-77
2022/08/25 07:24:34;;;;;;;5.63;2.00;;;;;;;;;;5009621;28;20030;-79
2022/08/25 07:27:00;;;;;;;6.25;2.22;;;;;;;;;;5008919;28;20032;-78
2022/08/25 07:29:28;;;;;;;19.17;9.07;;;;;;;;;;5018677;28;20025;-77
2022/08/25 07:31:54;;;;;;;11.85;3.05;;;;;;;;;;5025531;28;20029;-77
2022/08/25 07:37:05;;;;;;;5.03;2.03;;;;;;;;;;5029404;28;20068;-77
2022/08/25 07:39:32;;;;;;;7.75;2.90;;;;;;;;;;5030448;28;20427;-78
2022/08/25 07:41:58;;;;;;;6.22;2.42;;;;;;;;;;5015981;28;20030;-78
2022/08/25 07:44:25;;;;;;;9.35;2.80;;;;;;;;;;5020508;28;20030;-81
2022/08/25 07:46:51;;;;;;;24.33;15.30;;;;;;;;;;5021754;28;20038;-77
2022/08/25 07:49:19;;;;;;;9.60;3.70;;;;;;;;;;5027554;28;20044;-78
2022/08/25 07:51:46;;;;;;;5.82;2.40;;;;;;;;;;5029335;28;20068;-76
2022/08/25 07:54:12;;;;;;;4.20;2.15;;;;;;;;;;5027938;28;20022;-73
2022/08/25 07:56:40;;;;;;;8.25;2.60;;;;;;;;;;5029649;28;20033;-72
2022/08/25 07:59:07;;;;;;;3.90;2.10;;;;;;;;;;5029422;28;20044;-73
2022/08/25 08:01:33;;;;;;;8.25;1.98;;;;;;;;;;5026298;28;20128;-74
2022/08/25 08:03:59;;;;;;;4.05;2.08;;;;;;;;;;5029402;28;20033;-73
2022/08/25 08:06:25;;;;;;;7.65;2.25;;;;;;;;;;5021543;28;20032;-73
2022/08/25 08:08:52;;;;;;;4.15;1.92;;;;;;;;;;5023253;28;20187;-73
2022/08/25 08:11:20;;;;;;;3.88;2.05;;;;;;;;;;5030779;28;20072;-72
2022/08/25 08:13:47;;;;;;;10.88;2.30;;;;;;;;;;5024539;28;20033;-73
2022/08/25 08:16:14;;;;;;;8.30;1.90;;;;;;;;;;5033431;28;20032;-74
2022/08/25 08:18:41;;;;;;;6.95;2.03;;;;;;;;;;5028466;28;20037;-72
2022/08/25 08:21:11;;;;;;;13.45;7.22;;;;;;;;;;5031082;28;20022;-72
2022/08/25 08:23:38;;;;;;;6.70;3.97;;;;;;;;;;5031674;28;20064;-72
2022/08/25 08:26:04;;;;;;;9.15;3.33;;;;;;;;;;5033441;28;20033;-73
2022/08/25 08:28:30;;;;;;;9.57;1.92;;;;;;;;;;5015645;28;20056;-73
2022/08/25 08:30:56;;;;;;;7.55;1.63;;;;;;;;;;5033306;28;20041;-71
2022/08/25 08:33:23;;;;;;;6.32;1.52;;;;;;;;;;5032353;28;20029;-72
2022/08/25 08:35:56;;;;;;;6.85;1.90;;;;;;;;;;5026189;28;20029;-71
2022/08/25 08:38:23;;;;;;;8.93;4.22;;;;;;;;;;5024334;28;20538;-72
2022/08/25 08:43:52;;;;;;;7.63;2.20;;;;;;;;;;5029070;28;20035;-68
2022/08/25 08:46:18;;;;;;;6.82;1.65;;;;;;;;;;5033496;28;20104;-70
2022/08/25 08:48:51;;;;;;;5.93;1.40;;;;;;;;;;5027847;28;20037;-70
2022/08/25 08:51:17;;;;;;;4.72;1.73;;;;;;;;;;5025668;28;20532;-74
2022/08/25 08:53:52;;;;;;;7.30;1.50;;;;;;;;;;5028992;28;20033;-69
2022/08/25 08:56:37;;;;;;;5.20;1.92;;;;;;;;;;5028491;28;20033;-72
2022/08/25 08:59:12;;;;;;;4.63;1.90;;;;;;;;;;5027398;28;20037;-69
2022/08/25 09:01:47;;;;;;;2.80;1.67;;;;;;;;;;5033363;28;20087;-70
2022/08/25 09:04:13;;;;;;;3.67;1.83;;;;;;;;;;5026698;28;20025;-71
2022/08/25 09:06:42;;;;;;;6.07;1.85;;;;;;;;;;5030490;28;20033;-70
2022/08/25 09:09:11;;;;;;;4.78;2.00;;;;;;;;;;5031999;28;20683;-70
2022/08/25 09:11:55;;;;;;;3.08;1.58;;;;;;;;;;5022957;28;20033;-71
2022/08/25 09:14:37;;;;;;;4.47;1.52;;;;;;;;;;5026168;28;20117;-70
2022/08/25 09:17:18;;;;;;;7.30;1.55;;;;;;;;;;5029534;28;20086;-72
2022/08/25 09:19:53;;;;;;;4.28;1.90;;;;;;;;;;5044531;28;20845;-70
2022/08/25 09:22:22;;;;;;;5.78;1.60;;;;;;;;;;5032707;28;20037;-70
2022/08/25 09:25:07;;;;;;;5.70;1.55;;;;;;;;;;5027764;28;20029;-72
2022/08/25 09:27:51;;;;;;;9.90;4.15;;;;;;;;;;5022769;28;20498;-70
2022/08/25 09:30:18;;;;;;;8.65;4.50;;;;;;;;;;5006755;28;20049;-70
2022/08/25 09:32:46;;;;;;;4.50;1.30;;;;;;;;;;5011404;28;20448;-70
2022/08/25 09:35:24;;;;;;;4.95;2.05;;;;;;;;;;5007388;28;20441;-71
2022/08/25 09:38:03;;;;;;;3.67;1.73;;;;;;;;;;5008432;28;20381;-73
2022/08/25 09:40:30;;;;;;;5.07;1.42;;;;;;;;;;5009100;28;20045;-71
2022/08/25 09:42:57;;;;;;;8.55;1.30;;;;;;;;;;4997543;28;20073;-71
2022/08/25 09:45:31;;;;;;;7.82;1.48;;;;;;;;;;5007108;28;20033;-74
2022/08/25 09:47:57;;;;;;;8.25;1.38;;;;;;;;;;5010651;28;20045;-71
2022/08/25 09:50:23;;;;;;;9.25;1.80;;;;;;;;;;5011936;28;20037;-72
2022/08/25 09:52:50;;;;;;;7.57;1.35;;;;;;;;;;5003310;28;20045;-71
2022/08/25 09:55:33;;;;;;;5.30;1.13;;;;;;;;;;4991902;28;20462;-72
2022/08/25 09:58:00;;;;;;;16.95;10.82;;;;;;;;;;5000416;28;20553;-73
2022/08/25 10:00:26;;;;;;;11.10;2.53;;;;;;;;;;5007807;28;20076;-72
2022/08/25 10:03:01;;;;;;;4.93;1.20;;;;;;;;;;5001676;28;20037;-75
2022/08/25 10:05:33;;;;;;;5.88;1.40;;;;;;;;;;5003753;28;20025;-74
2022/08/25 10:08:00;;;;;;;4.50;1.40;;;;;;;;;;5010982;28;20042;-75
2022/08/25 10:10:31;;;;;;;4.68;1.40;;;;;;;;;;5027510;28;20034;-75
2022/08/25 10:12:59;;;;;;;2.63;1.42;;;;;;;;;;5009362;28;20049;-74
2022/08/25 10:15:26;;;;;;;2.47;1.15;;;;;;;;;;5012751;28;20044;-74
2022/08/25 10:17:52;;;;;;;4.43;1.25;;;;;;;;;;5011960;28;20030;-74
2022/08/25 10:20:19;;;;;;;5.93;1.67;;;;;;;;;;5011270;28;20041;-73
2022/08/25 10:22:49;;;;;;;5.85;1.85;;;;;;;;;;5011746;28;20105;-73
2022/08/25 10:25:18;;;;;;;5.97;1.33;;;;;;;;;;5003115;28;22757;-74
2022/08/25 10:27:46;;;;;;;3.33;1.40;;;;;;;;;;5006948;28;20130;-76
2022/08/25 10:30:32;;;;;;;5.97;1.63;;;;;;;;;;5007463;28;20030;-74
2022/08/25 10:32:58;;;;;;;12.23;4.63;;;;;;;;;;5004115;28;20026;-74
2022/08/25 10:35:24;;;;;;;8.05;4.78;;;;;;;;;;5010012;28;20033;-76
2022/08/25 10:38:02;;;;;;;2.40;1.52;;;;;;;;;;5008760;28;20104;-76
2022/08/25 10:40:36;;;;;;;5.68;1.23;;;;;;;;;;5005851;28;20030;-74
2022/08/25 10:43:06;;;;;;;3.38;1.25;;;;;;;;;;5009732;28;20030;-74
2022/08/25 10:45:42;;;;;;;3.85;1.00;;;;;;;;;;5011676;28;20145;-74
2022/08/25 10:48:17;;;;;;;4.63;1.20;;;;;;;;;;5009362;28;20389;-75
2022/08/25 10:50:48;;;;;;;2.85;1.27;;;;;;;;;;4994227;28;20029;-75
2022/08/25 10:53:21;;;;;;;35.17;3.03;;;;;;;;;;5004615;28;20481;-74
2022/08/25 10:55:56;;;;;;;5.03;1.45;;;;;;;;;;4995952;28;20037;-74
2022/08/25 10:58:41;;;;;;;5.43;1.25;;;;;;;;;;5000513;28;20129;-74
2022/08/25 11:01:13;;;;;;;3.40;1.40;;;;;;;;;;4994949;28;23560;-75
2022/08/25 11:03:45;;;;;;;3.33;1.00;;;;;;;;;;5009879;28;20116;-75
2022/08/25 11:06:17;;;;;;;4.32;1.60;;;;;;;;;;5011293;28;20393;-75
2022/08/25 11:08:47;;;;;;;1.40;0.90;;;;;;;;;;5006444;28;20037;-74
2022/08/25 11:11:30;;;;;;;3.72;0.85;;;;;;;;;;4994193;28;20014;-75
2022/08/25 11:13:56;;;;;;;1.65;1.08;;;;;;;;;;5005634;28;20068;-75
2022/08/25 11:16:43;;;;;;;3.40;1.00;;;;;;;;;;5010197;28;20030;-75
2022/08/25 11:19:09;;;;;;;1.25;1.10;;;;;;;;;;5019087;28;20034;-76
2022/08/25 11:21:44;;;;;;;6.72;1.30;;;;;;;;;;5011596;28;20026;-74
2022/08/25 11:24:21;;;;;;;4.25;1.30;;;;;;;;;;5008933;28;20022;-75
2022/08/25 11:26:51;;;;;;;4.13;1.20;;;;;;;;;;5010239;28;20029;-75
2022/08/25 11:29:18;;;;;;;3.80;1.40;;;;;;;;;;5010471;28;20168;-74
2022/08/25 11:31:52;;;;;;;5.72;1.73;;;;;;;;;;5003685;28;20120;-74
2022/08/25 11:34:18;;;;;;;4.90;1.20;;;;;;;;;;5010278;28;20038;-74
2022/08/25 11:36:59;;;;;;;2.10;1.30;;;;;;;;;;5010493;28;21162;-75
2022/08/25 11:39:28;;;;;;;1.73;0.90;;;;;;;;;;5011114;28;20431;-74
2022/08/25 11:42:14;;;;;;;2.13;1.08;;;;;;;;;;5008968;28;20129;-75
2022/08/25 11:44:54;;;;;;;2.92;1.05;;;;;;;;;;4993007;28;20432;-74
2022/08/25 11:47:35;;;;;;;6.30;1.30;;;;;;;;;;5013188;28;20030;-74
2022/08/25 11:50:02;;;;;;;;;;;;;;;;;;5015772;28;20167;-74
2022/08/25 11:52:31;;;;;;;4.78;1.38;;;;;;;;;;5014521;28;20004;-74
2022/08/25 11:55:12;;;;;;;5.53;1.33;;;;;;;;;;5014682;28;20034;-75
2022/08/25 11:57:39;;;;;;;4.85;1.30;;;;;;;;;;5015041;28;20064;-74
2022/08/25 12:00:28;;;;;;;3.97;1.30;;;;;;;;;;5016247;28;20022;-75
2022/08/25 12:02:54;;;;;;;4.53;1.45;;;;;;;;;;5013702;28;20599;-75
2022/08/25 12:05:20;;;;;;;3.53;1.30;;;;;;;;;;5011041;28;20053;-74
2022/08/25 12:08:37;;;;;;;5.07;1.30;;;;;;;;;;5006508;28;20033;-75
2022/08/25 12:10:56;;;;;;;2.70;1.20;;;;;;;;;;5010389;28;20041;-74
2022/08/25 12:13:25;;;;;;;7.15;1.13;;;;;;;;;;5001373;28;20038;-74
2022/08/25 12:15:51;;;;;;;2.83;1.10;;;;;;;;;;5003437;28;20022;-74
2022/08/25 12:18:23;;;;;;;6.07;1.17;;;;;;;;;;5005094;28;20038;-73
2022/08/25 12:20:52;;;;;;;3.05;1.30;;;;;;;;;;5014133;28;20029;-74
2022/08/25 12:23:32;;;;;;;3.28;1.08;;;;;;;;;;4986689;28;20023;-73
2022/08/25 12:26:00;;;;;;;2.60;1.55;;;;;;;;;;5005105;28;20045;-74
2022/08/25 12:28:26;;;;;;;7.15;1.17;;;;;;;;;;5006500;28;20034;-73
2022/08/25 12:30:54;;;;;;;3.40;1.10;;;;;;;;;;5002177;28;20034;-73
2022/08/25 12:33:20;;;;;;;5.38;1.35;;;;;;;;;;5010098;28;20026;-73
2022/08/25 12:35:57;;;;;;;3.83;1.13;;;;;;;;;;5014281;28;20036;-73
2022/08/25 12:38:28;;;;;;;3.83;1.10;;;;;;;;;;5023945;28;20041;-73
2022/08/25 12:40:58;;;;;;;8.60;1.25;;;;;;;;;;5017826;28;20425;-73
2022/08/25 12:43:29;;;;;;;5.57;1.60;;;;;;;;;;4997703;28;20073;-73
2022/08/25 12:46:16;;;;;;;2.40;1.17;;;;;;;;;;5011133;28;20284;-74
2022/08/25 12:48:56;;;;;;;3.35;1.08;;;;;;;;;;4999465;28;20046;-74
2022/08/25 12:51:24;;;;;;;9.60;1.92;;;;;;;;;;5006015;28;20026;-74
2022/08/25 12:53:52;;;;;;;2.97;1.25;;;;;;;;;;5000191;28;20037;-74
2022/08/25 12:56:20;;;;;;;5.47;1.40;;;;;;;;;;5012284;28;20030;-75
2022/08/25 12:58:54;;;;;;;3.30;1.30;;;;;;;;;;4984280;28;20048;-74
2022/08/25 13:01:39;;;;;;;3.75;1.35;;;;;;;;;;4994827;28;20053;-74
2022/08/25 13:04:05;;;;;;;2.35;1.30;;;;;;;;;;5007571;28;20132;-74
2022/08/25 13:06:36;;;;;;;4.45;1.20;;;;;;;;;;5011565;28;20033;-74
2022/08/25 13:09:21;;;;;;;3.92;1.25;;;;;;;;;;5005943;28;20077;-73
2022/08/25 13:11:53;;;;;;;3.33;1.33;;;;;;;;;;5026411;28;20441;-74
2022/08/25 13:14:23;;;;;;;6.15;1.30;;;;;;;;;;4998546;28;20069;-73
2022/08/25 13:16:57;;;;;;;1.88;1.10;;;;;;;;;;5007698;28;20029;-74
2022/08/25 13:19:24;;;;;;;2.20;1.17;;;;;;;;;;5011389;28;20066;-73
2022/08/25 13:21:50;;;;;;;3.67;1.20;;;;;;;;;;4999782;28;20368;-74
2022/08/25 13:24:27;;;;;;;2.33;1.10;;;;;;;;;;5005513;28;20026;-74
2022/08/25 13:26:55;;;;;;;1.77;1.23;;;;;;;;;;5003576;28;20535;-74
2022/08/25 13:29:25;;;;;;;1.00;0.80;;;;;;;;;;5005170;28;20058;-74
2022/08/25 13:32:00;;;;;;;2.10;0.90;;;;;;;;;;5006967;28;20025;-74
2022/08/25 13:34:37;;;;;;;1.95;1.00;;;;;;;;;;4995173;28;20425;-74
2022/08/25 13:37:26;;;;;;;5.80;1.35;;;;;;;;;;4983334;28;20026;-74
2022/08/25 13:40:15;;;;;;;4.93;1.27;;;;;;;;;;4998046;28;20113;-75
2022/08/25 13:42:41;;;;;;;3.58;1.40;;;;;;;;;;5004147;28;20039;-75
2022/08/25 13:45:08;;;;;;;4.55;1.45;;;;;;;;;;5004655;28;20049;-74
2022/08/25 13:47:35;;;;;;;5.00;1.40;;;;;;;;;;5017531;28;20095;-75
2022/08/25 13:50:22;;;;;;;5.45;1.30;;;;;;;;;;5014512;28;20033;-74
2022/08/25 13:52:49;;;;;;;1.65;1.05;;;;;;;;;;5005934;28;20078;-75
2022/08/25 13:55:20;;;;;;;5.20;1.48;;;;;;;;;;5008465;28;20032;-74
2022/08/25 13:57:46;;;;;;;1.90;1.10;;;;;;;;;;5010957;28;20356;-74
2022/08/25 14:00:13;;;;;;;3.58;1.17;;;;;;;;;;4990140;28;20121;-75
2022/08/25 14:02:46;;;;;;;5.10;1.40;;;;;;;;;;5004697;28;20528;-73
2022/08/25 14:05:13;;;;;;;5.35;1.10;;;;;;;;;;5003472;28;20072;-74
2022/08/25 14:07:39;;;;;;;2.00;1.00;;;;;;;;;;5007269;28;20033;-74
2022/08/25 14:10:05;;;;;;;2.15;0.70;;;;;;;;;;4990567;28;20066;-75
2022/08/25 14:12:45;;;;;;;2.45;1.05;;;;;;;;;;5010626;28;20363;-74
2022/08/25 14:15:12;;;;;;;0.98;0.68;;;;;;;;;;5002605;28;20026;-75
2022/08/25 14:17:40;;;;;;;2.10;0.85;;;;;;;;;;5012394;28;20108;-74
2022/08/25 14:20:07;;;;;;;2.85;1.90;;;;;;;;;;5007654;28;20038;-74
2022/08/25 14:22:33;;;;;;;3.13;0.80;;;;;;;;;;5011026;28;20034;-73
2022/08/25 14:24:59;;;;;;;2.28;0.95;;;;;;;;;;5009166;28;20044;-74
2022/08/25 14:27:25;;;;;;;2.72;1.02;;;;;;;;;;5007669;28;20022;-74
2022/08/25 14:29:51;;;;;;;2.90;0.95;;;;;;;;;;5011401;28;20030;-74
2022/08/25 14:32:17;;;;;;;2.08;0.77;;;;;;;;;;5011492;28;20033;-74
2022/08/25 14:34:44;;;;;;;2.00;0.95;;;;;;;;;;4994519;28;20030;-74
2022/08/25 14:37:13;;;;;;;2.33;1.00;;;;;;;;;;5005982;28;20030;-73
2022/08/25 14:39:39;;;;;;;3.55;1.13;;;;;;;;;;5006942;28;20048;-73
2022/08/25 14:42:05;;;;;;;1.98;0.90;;;;;;;;;;4996948;28;20033;-73
2022/08/25 14:44:31;;;;;;;4.00;1.00;;;;;;;;;;4991411;28;20034;-74
2022/08/25 14:46:58;;;;;;;4.15;1.00;;;;;;;;;;5009057;28;20469;-73
2022/08/25 14:49:28;;;;;;;3.00;0.95;;;;;;;;;;5011112;28;20045;-73
2022/08/25 14:51:55;;;;;;;1.83;0.90;;;;;;;;;;4993059;28;20044;-73
2022/08/25 14:54:23;;;;;;;1.67;1.10;;;;;;;;;;4987785;28;20041;-73
2022/08/25 14:56:49;;;;;;;1.23;0.70;;;;;;;;;;5010094;28;20072;-73
2022/08/25 14:59:16;;;;;;;2.63;1.10;;;;;;;;;;5011283;28;20394;-75